Time;durP1;ratioP1;P1;durP2;ratioP2;P2;SDS_P1;SDS_P2;PMS_P1;PMS_P2;Temp;Humidity;BMP_temperature;BMP_pressure;BME280_temperature;BME280_humidity;BME280_pressure;Samples;Min_cycle;Max_cycle;Signal;HPM_P1;HPM_P2
2023/10/23 00:01:38;;;;;;;9.50;6.03;;;;;;;;;;5031479;28;20484;-85
2023/10/23 00:04:04;;;;;;;13.27;5.43;;;;;;;;;;5032816;28;20045;-83
2023/10/23 00:06:30;;;;;;;8.73;5.30;;;;;;;;;;5010085;28;20187;-81
2023/10/23 00:08:56;;;;;;;14.63;6.10;;;;;;;;;;5029645;28;20044;-83
2023/10/23 00:11:26;;;;;;;16.50;7.38;;;;;;;;;;5012089;28;20037;-83
2023/10/23 00:13:52;;;;;;;8.63;5.18;;;;;;;;;;5031356;28;20060;-82
2023/10/23 00:16:18;;;;;;;11.85;5.20;;;;;;;;;;5016455;28;20048;-82
2023/10/23 00:18:45;;;;;;;6.40;5.60;;;;;;;;;;5015129;28;20530;-83
2023/10/23 00:21:11;;;;;;;10.93;5.65;;;;;;;;;;5016204;28;20049;-83
2023/10/23 00:23:37;;;;;;;8.98;5.93;;;;;;;;;;5032496;28;20037;-89
2023/10/23 00:26:03;;;;;;;9.10;5.65;;;;;;;;;;5000931;28;20112;-91
2023/10/23 00:28:29;;;;;;;7.60;5.28;;;;;;;;;;5034653;28;20041;-87
2023/10/23 00:30:55;;;;;;;10.07;5.55;;;;;;;;;;4999584;28;20124;-90
2023/10/23 00:33:21;;;;;;;7.78;5.63;;;;;;;;;;5020987;28;20053;-87
2023/10/23 00:35:47;;;;;;;9.60;5.68;;;;;;;;;;5027444;28;20075;-88
2023/10/23 00:38:13;;;;;;;8.93;6.05;;;;;;;;;;5015562;28;20053;-90
2023/10/23 00:40:39;;;;;;;8.00;5.80;;;;;;;;;;5012838;28;20132;-89
2023/10/23 00:43:18;;;;;;;9.80;6.20;;;;;;;;;;5013165;28;20483;-91
2023/10/23 00:45:51;;;;;;;9.07;6.03;;;;;;;;;;5032242;28;21407;-86
2023/10/23 00:48:20;;;;;;;14.65;5.90;;;;;;;;;;5032994;28;20047;-91
2023/10/23 00:50:47;;;;;;;8.63;6.13;;;;;;;;;;5032538;28;20037;-89
2023/10/23 00:53:13;;;;;;;8.75;6.05;;;;;;;;;;5012668;28;20076;-90
2023/10/23 00:55:40;;;;;;;10.70;6.00;;;;;;;;;;5000328;28;20048;-87
2023/10/23 00:58:06;;;;;;;7.78;6.40;;;;;;;;;;5028242;28;20037;-92
2023/10/23 01:00:33;;;;;;;9.18;5.93;;;;;;;;;;5013642;28;20045;-86
2023/10/23 01:02:59;;;;;;;8.48;6.00;;;;;;;;;;5015497;28;20064;-84
2023/10/23 01:05:25;;;;;;;11.00;6.38;;;;;;;;;;5013800;28;20120;-92
2023/10/23 01:07:51;;;;;;;13.52;7.28;;;;;;;;;;5026464;28;20048;-90
2023/10/23 01:10:17;;;;;;;10.52;6.47;;;;;;;;;;5030639;28;20055;-86
2023/10/23 01:12:44;;;;;;;16.17;6.80;;;;;;;;;;5007572;28;20094;-84
2023/10/23 01:15:10;;;;;;;13.38;6.63;;;;;;;;;;5014195;28;20049;-83
2023/10/23 01:17:36;;;;;;;11.63;6.45;;;;;;;;;;5014390;28;20049;-83
2023/10/23 01:20:03;;;;;;;9.98;6.65;;;;;;;;;;5027806;28;20255;-84
2023/10/23 01:22:29;;;;;;;8.38;5.93;;;;;;;;;;5011085;28;20048;-82
2023/10/23 01:24:56;;;;;;;10.30;6.05;;;;;;;;;;5014490;28;20040;-83
2023/10/23 01:27:22;;;;;;;10.98;6.80;;;;;;;;;;5011494;28;20039;-84
2023/10/23 01:29:48;;;;;;;11.00;6.60;;;;;;;;;;4994311;28;20052;-84
2023/10/23 01:32:14;;;;;;;15.55;6.80;;;;;;;;;;5029818;28;20046;-83
2023/10/23 01:34:40;;;;;;;7.95;6.65;;;;;;;;;;4998732;28;20104;-84
2023/10/23 01:37:06;;;;;;;13.43;7.07;;;;;;;;;;5026043;28;20517;-83
2023/10/23 01:39:32;;;;;;;11.55;7.72;;;;;;;;;;5010696;28;20064;-84
2023/10/23 01:41:59;;;;;;;11.63;6.50;;;;;;;;;;5026783;28;20041;-83
2023/10/23 01:44:25;;;;;;;13.35;7.03;;;;;;;;;;5027712;28;20048;-83
2023/10/23 01:46:51;;;;;;;11.60;7.38;;;;;;;;;;5012808;28;20098;-84
2023/10/23 01:49:17;;;;;;;13.30;7.40;;;;;;;;;;5015197;28;20045;-84
2023/10/23 01:51:43;;;;;;;11.88;7.57;;;;;;;;;;5014199;28;20060;-83
2023/10/23 01:54:09;;;;;;;9.90;7.13;;;;;;;;;;5027621;28;20516;-83
2023/10/23 01:56:36;;;;;;;10.88;8.23;;;;;;;;;;5028879;28;20128;-83
2023/10/23 01:59:02;;;;;;;15.38;8.70;;;;;;;;;;5008130;28;20045;-84
2023/10/23 02:01:28;;;;;;;15.13;9.38;;;;;;;;;;4996635;28;20126;-83
2023/10/23 02:03:56;;;;;;;13.10;8.55;;;;;;;;;;5027562;28;20037;-84
2023/10/23 02:06:22;;;;;;;17.13;8.90;;;;;;;;;;5032261;28;20064;-83
2023/10/23 02:08:48;;;;;;;10.40;8.50;;;;;;;;;;4995010;28;20044;-84
2023/10/23 02:11:14;;;;;;;13.15;8.23;;;;;;;;;;5015554;28;20041;-83
2023/10/23 02:13:40;;;;;;;11.52;8.07;;;;;;;;;;5029000;28;20091;-83
2023/10/23 02:16:06;;;;;;;11.20;8.35;;;;;;;;;;5013477;28;20468;-84
2023/10/23 02:18:33;;;;;;;11.55;8.18;;;;;;;;;;4993265;28;20056;-84
2023/10/23 02:20:59;;;;;;;11.85;8.48;;;;;;;;;;5026768;28;20120;-83
2023/10/23 02:23:25;;;;;;;15.55;10.00;;;;;;;;;;5028712;28;20029;-83
2023/10/23 02:25:51;;;;;;;13.52;9.20;;;;;;;;;;5011190;28;20124;-83
2023/10/23 02:28:17;;;;;;;14.10;9.60;;;;;;;;;;5012570;28;21087;-83
2023/10/23 02:30:43;;;;;;;14.30;9.77;;;;;;;;;;5025196;28;20523;-82
2023/10/23 02:33:09;;;;;;;17.45;10.80;;;;;;;;;;4997454;28;20801;-83
2023/10/23 02:35:36;;;;;;;17.60;10.45;;;;;;;;;;5011101;28;20083;-83
2023/10/23 02:38:02;;;;;;;17.33;9.93;;;;;;;;;;5024402;28;20049;-84
2023/10/23 02:40:29;;;;;;;16.50;10.63;;;;;;;;;;4994682;28;20075;-83
2023/10/23 02:42:55;;;;;;;21.13;12.07;;;;;;;;;;5010839;28;20508;-88
2023/10/23 02:45:22;;;;;;;18.55;10.85;;;;;;;;;;5025817;28;20036;-90
2023/10/23 02:47:48;;;;;;;22.05;11.18;;;;;;;;;;5027660;28;20057;-87
2023/10/23 02:50:14;;;;;;;19.98;11.07;;;;;;;;;;5016130;28;20050;-90
2023/10/23 02:52:40;;;;;;;18.13;11.23;;;;;;;;;;5030780;28;20379;-89
2023/10/23 02:55:06;;;;;;;20.45;12.02;;;;;;;;;;4999233;28;20033;-90
2023/10/23 02:57:32;;;;;;;17.25;11.05;;;;;;;;;;5012287;28;20056;-87
2023/10/23 02:59:59;;;;;;;19.92;12.43;;;;;;;;;;5010949;28;20041;-90
2023/10/23 03:02:25;;;;;;;15.57;11.40;;;;;;;;;;5014653;28;20061;-85
2023/10/23 03:04:51;;;;;;;18.00;11.75;;;;;;;;;;5028327;28;20107;-90
2023/10/23 03:07:17;;;;;;;19.73;11.82;;;;;;;;;;5030617;28;20049;-88
2023/10/23 03:09:43;;;;;;;16.70;12.40;;;;;;;;;;5015246;28;20041;-90
2023/10/23 03:12:10;;;;;;;18.33;11.27;;;;;;;;;;5012128;28;20045;-90
2023/10/23 03:14:36;;;;;;;19.60;11.82;;;;;;;;;;5028488;28;20045;-90
2023/10/23 03:17:02;;;;;;;13.27;10.68;;;;;;;;;;5011375;28;20136;-89
2023/10/23 03:19:28;;;;;;;15.82;11.05;;;;;;;;;;5032220;28;20076;-90
2023/10/23 03:21:55;;;;;;;17.92;11.82;;;;;;;;;;5009484;28;20057;-90
2023/10/23 03:24:22;;;;;;;20.50;11.57;;;;;;;;;;5011503;28;20042;-89
2023/10/23 03:26:48;;;;;;;18.13;12.45;;;;;;;;;;5008270;28;20163;-90
2023/10/23 03:29:14;;;;;;;19.63;12.00;;;;;;;;;;5011374;28;20048;-89
2023/10/23 03:31:40;;;;;;;19.50;12.27;;;;;;;;;;4993444;28;20038;-87
2023/10/23 03:34:06;;;;;;;19.08;12.73;;;;;;;;;;5008547;28;20154;-84
2023/10/23 03:36:32;;;;;;;21.65;12.93;;;;;;;;;;5004558;28;20199;-82
2023/10/23 03:38:58;;;;;;;19.15;13.75;;;;;;;;;;5008918;28;20045;-81
2023/10/23 03:41:25;;;;;;;22.08;13.52;;;;;;;;;;5024518;28;20124;-82
2023/10/23 03:43:51;;;;;;;20.02;12.52;;;;;;;;;;5011065;28;20045;-82
2023/10/23 03:46:18;;;;;;;19.50;13.35;;;;;;;;;;5007807;28;20516;-82
2023/10/23 03:48:44;;;;;;;19.80;13.82;;;;;;;;;;5007682;28;20029;-83
2023/10/23 03:51:13;;;;;;;18.15;12.50;;;;;;;;;;5027371;28;20140;-81
2023/10/23 03:53:39;;;;;;;18.55;13.48;;;;;;;;;;5013639;28;20045;-85
2023/10/23 03:56:06;;;;;;;22.23;13.95;;;;;;;;;;5011081;28;20131;-85
2023/10/23 03:58:32;;;;;;;24.23;13.48;;;;;;;;;;5027104;28;20042;-85
2023/10/23 04:00:58;;;;;;;18.75;13.27;;;;;;;;;;5008543;28;20508;-85
2023/10/23 04:03:24;;;;;;;20.85;13.73;;;;;;;;;;5009163;28;20045;-85
2023/10/23 04:05:51;;;;;;;21.27;14.50;;;;;;;;;;5010508;28;20088;-85
2023/10/23 04:08:17;;;;;;;20.88;14.15;;;;;;;;;;5023548;28;20501;-85
2023/10/23 04:10:47;;;;;;;20.88;14.10;;;;;;;;;;4996983;28;20113;-85
2023/10/23 04:13:13;;;;;;;22.02;14.40;;;;;;;;;;5024079;28;20037;-85
2023/10/23 04:15:39;;;;;;;23.85;14.25;;;;;;;;;;5009048;28;20378;-85
2023/10/23 04:18:05;;;;;;;23.60;14.23;;;;;;;;;;5012802;28;20076;-85
2023/10/23 04:20:32;;;;;;;20.92;14.70;;;;;;;;;;5022095;28;20834;-85
2023/10/23 04:22:58;;;;;;;22.38;15.38;;;;;;;;;;5027095;28;20045;-85
2023/10/23 04:25:24;;;;;;;22.27;15.15;;;;;;;;;;5026218;28;20048;-85
2023/10/23 04:27:50;;;;;;;21.60;14.82;;;;;;;;;;4996415;28;20401;-85
2023/10/23 04:30:17;;;;;;;26.48;15.50;;;;;;;;;;5028600;28;21752;-87
2023/10/23 04:32:43;;;;;;;23.70;15.02;;;;;;;;;;5011035;28;20045;-85
2023/10/23 04:35:09;;;;;;;21.35;13.68;;;;;;;;;;5015952;28;20049;-85
2023/10/23 04:37:35;;;;;;;24.58;14.18;;;;;;;;;;5026541;28;20049;-85
2023/10/23 04:40:01;;;;;;;22.48;13.40;;;;;;;;;;5004583;28;20493;-85
2023/10/23 04:42:27;;;;;;;22.70;14.65;;;;;;;;;;5010338;28;20056;-84
2023/10/23 04:44:53;;;;;;;24.48;14.50;;;;;;;;;;5000079;28;20034;-89
2023/10/23 04:47:19;;;;;;;23.75;15.15;;;;;;;;;;5014351;28;20034;-87
2023/10/23 04:49:47;;;;;;;28.02;15.63;;;;;;;;;;5013971;28;20042;-88
2023/10/23 04:52:13;;;;;;;24.23;16.13;;;;;;;;;;5031427;28;20045;-87
2023/10/23 04:54:40;;;;;;;21.75;15.60;;;;;;;;;;5025820;28;20157;-90
2023/10/23 04:57:06;;;;;;;21.25;15.30;;;;;;;;;;5020657;28;20041;-89
2023/10/23 04:59:35;;;;;;;21.80;15.73;;;;;;;;;;5016763;28;20485;-86
2023/10/23 05:02:01;;;;;;;25.85;15.93;;;;;;;;;;5016794;28;20092;-89
2023/10/23 05:04:30;;;;;;;23.88;15.57;;;;;;;;;;5008271;28;20117;-82
2023/10/23 05:06:56;;;;;;;24.95;15.35;;;;;;;;;;5022495;28;20052;-84
2023/10/23 05:09:23;;;;;;;23.58;15.25;;;;;;;;;;4993859;28;20123;-82
2023/10/23 05:11:49;;;;;;;22.98;14.75;;;;;;;;;;5021969;28;20096;-82
2023/10/23 05:14:15;;;;;;;24.17;15.98;;;;;;;;;;5025604;28;20045;-82
2023/10/23 05:16:41;;;;;;;23.75;16.33;;;;;;;;;;5011577;28;20044;-82
2023/10/23 05:19:10;;;;;;;24.83;16.33;;;;;;;;;;5024933;28;20706;-84
2023/10/23 05:21:37;;;;;;;26.88;16.20;;;;;;;;;;5026654;28;20065;-82
2023/10/23 05:24:03;;;;;;;22.98;15.32;;;;;;;;;;5011397;28;20048;-81
2023/10/23 05:26:29;;;;;;;26.75;17.25;;;;;;;;;;5013264;28;20068;-82
2023/10/23 05:28:55;;;;;;;23.23;15.77;;;;;;;;;;5013918;28;20045;-82
2023/10/23 05:31:21;;;;;;;25.80;15.50;;;;;;;;;;4969838;28;20042;-83
2023/10/23 05:33:49;;;;;;;26.25;15.10;;;;;;;;;;4955116;28;20492;-84
2023/10/23 05:36:15;;;;;;;32.28;14.68;;;;;;;;;;4950347;28;20054;-84
2023/10/23 05:38:41;;;;;;;114.03;13.85;;;;;;;;;;5014918;28;20049;-81
2023/10/23 05:41:10;;;;;;;59.10;11.95;;;;;;;;;;5029799;28;20081;-82
2023/10/23 05:43:36;;;;;;;78.43;11.38;;;;;;;;;;5028576;28;20041;-81
2023/10/23 05:46:05;;;;;;;42.78;9.35;;;;;;;;;;5010714;28;20037;-81
2023/10/23 05:48:32;;;;;;;40.85;10.93;;;;;;;;;;5016499;28;20045;-81
2023/10/23 05:51:03;;;;;;;15.48;10.77;;;;;;;;;;5003198;28;20060;-82
2023/10/23 05:53:29;;;;;;;14.38;11.25;;;;;;;;;;5019985;28;20060;-88
2023/10/23 05:56:01;;;;;;;17.65;11.75;;;;;;;;;;5041446;28;20044;-88
2023/10/23 05:58:27;;;;;;;28.73;10.95;;;;;;;;;;5042262;28;20129;-88
2023/10/23 06:00:53;;;;;;;43.53;13.60;;;;;;;;;;5021467;28;20057;-89
2023/10/23 06:03:19;;;;;;;24.02;11.68;;;;;;;;;;5028008;28;20044;-88
2023/10/23 06:05:45;;;;;;;48.33;12.45;;;;;;;;;;5044035;28;20615;-88
2023/10/23 06:08:12;;;;;;;212.70;16.92;;;;;;;;;;5043549;28;20042;-87
2023/10/23 06:10:41;;;;;;;165.70;13.60;;;;;;;;;;5039461;28;20045;-86
2023/10/23 06:13:08;;;;;;;250.82;16.45;;;;;;;;;;5037715;28;20476;-87
2023/10/23 06:15:34;;;;;;;193.73;17.83;;;;;;;;;;5043040;28;20071;-88
2023/10/23 06:18:00;;;;;;;46.13;13.30;;;;;;;;;;5022225;28;20038;-86
2023/10/23 06:20:26;;;;;;;48.78;13.52;;;;;;;;;;5006594;28;20083;-85
2023/10/23 06:22:52;;;;;;;31.05;13.73;;;;;;;;;;5019067;28;20424;-87
2023/10/23 06:25:18;;;;;;;23.55;14.88;;;;;;;;;;5022454;28;20098;-84
2023/10/23 06:27:45;;;;;;;21.30;14.43;;;;;;;;;;5010247;28;20048;-86
2023/10/23 06:30:11;;;;;;;24.85;13.23;;;;;;;;;;5024793;28;20038;-88
2023/10/23 06:32:37;;;;;;;21.85;13.73;;;;;;;;;;5024059;28;20037;-87
2023/10/23 06:35:04;;;;;;;19.77;13.32;;;;;;;;;;5024656;28;20072;-88
2023/10/23 06:37:35;;;;;;;28.35;14.05;;;;;;;;;;5023580;28;20084;-87
2023/10/23 06:40:01;;;;;;;22.92;15.10;;;;;;;;;;5023351;28;20050;-88
2023/10/23 06:42:28;;;;;;;23.95;14.93;;;;;;;;;;5055570;28;20491;-86
2023/10/23 06:44:54;;;;;;;26.50;14.68;;;;;;;;;;5038101;28;20052;-83
2023/10/23 06:47:21;;;;;;;22.90;13.68;;;;;;;;;;5040635;28;20041;-89
2023/10/23 06:49:47;;;;;;;26.02;13.32;;;;;;;;;;5019630;28;20485;-87
2023/10/23 06:52:16;;;;;;;17.83;12.98;;;;;;;;;;5038028;28;20045;-88
2023/10/23 06:54:42;;;;;;;18.50;12.80;;;;;;;;;;5040773;28;20992;-84
2023/10/23 06:57:08;;;;;;;32.30;13.05;;;;;;;;;;5021661;28;20139;-88
2023/10/23 06:59:37;;;;;;;17.70;12.50;;;;;;;;;;5021421;28;20041;-87
2023/10/23 07:02:03;;;;;;;15.18;11.30;;;;;;;;;;5041192;28;20049;-87
2023/10/23 07:04:30;;;;;;;17.33;12.05;;;;;;;;;;5017837;28;20531;-84
2023/10/23 07:06:56;;;;;;;17.95;12.80;;;;;;;;;;5019248;28;20041;-84
2023/10/23 07:09:22;;;;;;;17.80;13.43;;;;;;;;;;5031349;28;20083;-84
2023/10/23 07:11:49;;;;;;;19.40;13.68;;;;;;;;;;5039253;28;20053;-84
2023/10/23 07:14:15;;;;;;;22.50;15.40;;;;;;;;;;5024411;28;20056;-84
2023/10/23 07:16:42;;;;;;;22.08;14.93;;;;;;;;;;5037695;28;20037;-83
2023/10/23 07:19:08;;;;;;;23.77;14.55;;;;;;;;;;5022420;28;20046;-83
2023/10/23 07:21:35;;;;;;;22.33;15.05;;;;;;;;;;5022281;28;20037;-84
2023/10/23 07:24:02;;;;;;;25.10;16.42;;;;;;;;;;5021991;28;20046;-81
2023/10/23 07:26:28;;;;;;;23.55;15.68;;;;;;;;;;5035206;28;20053;-81
2023/10/23 07:28:55;;;;;;;26.02;14.85;;;;;;;;;;5016692;28;20037;-82
2023/10/23 07:31:21;;;;;;;22.65;15.73;;;;;;;;;;5035409;28;20133;-82
2023/10/23 07:33:47;;;;;;;25.98;16.58;;;;;;;;;;5019915;28;20034;-82
2023/10/23 07:36:14;;;;;;;27.80;16.63;;;;;;;;;;5035516;28;20046;-82
2023/10/23 07:38:41;;;;;;;21.55;15.80;;;;;;;;;;5038400;28;20397;-81
2023/10/23 07:41:08;;;;;;;28.02;18.08;;;;;;;;;;5017334;28;20087;-81
2023/10/23 07:43:34;;;;;;;26.35;17.73;;;;;;;;;;5035380;28;20393;-81
2023/10/23 07:46:05;;;;;;;27.67;17.20;;;;;;;;;;5016303;28;20065;-80
2023/10/23 07:48:31;;;;;;;27.55;18.35;;;;;;;;;;5037719;28;20049;-82
2023/10/23 07:50:58;;;;;;;29.42;16.42;;;;;;;;;;5015808;28;20049;-82
2023/10/23 07:53:24;;;;;;;26.33;18.05;;;;;;;;;;5038300;28;20128;-80
2023/10/23 07:55:50;;;;;;;26.38;18.75;;;;;;;;;;5018974;28;20037;-82
2023/10/23 07:58:17;;;;;;;32.13;18.92;;;;;;;;;;5018484;28;20035;-81
2023/10/23 08:00:43;;;;;;;28.23;20.40;;;;;;;;;;4999315;28;22282;-82
2023/10/23 08:03:10;;;;;;;29.70;19.13;;;;;;;;;;5019543;28;20044;-81
2023/10/23 08:05:36;;;;;;;28.45;18.63;;;;;;;;;;5017576;28;20033;-80
2023/10/23 08:08:03;;;;;;;27.20;17.90;;;;;;;;;;5011321;28;20450;-80
2023/10/23 08:10:29;;;;;;;25.35;18.63;;;;;;;;;;5017528;28;20092;-81
2023/10/23 08:12:55;;;;;;;25.02;18.83;;;;;;;;;;5019884;28;20048;-81
2023/10/23 08:15:21;;;;;;;26.67;19.77;;;;;;;;;;5042649;28;20037;-87
2023/10/23 08:17:48;;;;;;;25.23;17.90;;;;;;;;;;5030221;28;20038;-86
2023/10/23 08:20:14;;;;;;;25.63;18.88;;;;;;;;;;5030561;28;20048;-86
2023/10/23 08:22:40;;;;;;;22.95;18.65;;;;;;;;;;5030333;28;20073;-86
2023/10/23 08:25:06;;;;;;;22.30;17.48;;;;;;;;;;5009551;28;20388;-85
2023/10/23 08:27:33;;;;;;;23.60;17.92;;;;;;;;;;5014222;28;20091;-87
2023/10/23 08:29:59;;;;;;;24.45;17.63;;;;;;;;;;5030596;28;20044;-88
2023/10/23 08:32:25;;;;;;;20.40;17.13;;;;;;;;;;5027281;28;20037;-88
2023/10/23 08:34:53;;;;;;;23.40;17.15;;;;;;;;;;5016692;28;20046;-82
2023/10/23 08:37:20;;;;;;;19.38;15.68;;;;;;;;;;5021503;28;20037;-81
2023/10/23 08:39:46;;;;;;;23.25;16.15;;;;;;;;;;5022474;28;20029;-82
2023/10/23 08:42:12;;;;;;;21.58;15.45;;;;;;;;;;5038040;28;20073;-82
2023/10/23 08:44:38;;;;;;;19.60;14.88;;;;;;;;;;5020395;28;20567;-81
2023/10/23 08:47:04;;;;;;;18.80;13.07;;;;;;;;;;5039576;28;20037;-82
2023/10/23 08:49:30;;;;;;;27.55;16.02;;;;;;;;;;5023835;28;20471;-82
2023/10/23 08:51:58;;;;;;;18.33;13.68;;;;;;;;;;5023696;28;20586;-83
2023/10/23 08:54:25;;;;;;;16.33;11.55;;;;;;;;;;5037224;28;20046;-81
2023/10/23 08:56:54;;;;;;;14.80;12.15;;;;;;;;;;5020615;28;20053;-82
2023/10/23 08:59:20;;;;;;;17.52;11.52;;;;;;;;;;5024324;28;20048;-81
2023/10/23 09:01:46;;;;;;;16.25;11.73;;;;;;;;;;5003456;28;20056;-82
2023/10/23 09:04:12;;;;;;;13.82;11.35;;;;;;;;;;5022198;28;20493;-80
2023/10/23 09:06:38;;;;;;;14.70;10.98;;;;;;;;;;5040639;28;20040;-82
2023/10/23 09:09:05;;;;;;;12.77;11.20;;;;;;;;;;5021011;28;20037;-81
2023/10/23 09:11:48;;;;;;;19.33;11.75;;;;;;;;;;5009926;28;20108;-82
2023/10/23 09:14:23;;;;;;;12.75;10.00;;;;;;;;;;5027278;28;20068;-83
2023/10/23 09:16:51;;;;;;;12.23;10.35;;;;;;;;;;5035069;28;20051;-83
2023/10/23 09:19:27;;;;;;;14.73;11.30;;;;;;;;;;5040805;28;20041;-81
2023/10/23 09:21:56;;;;;;;12.32;10.32;;;;;;;;;;5011192;28;20037;-81
2023/10/23 09:24:23;;;;;;;13.82;9.88;;;;;;;;;;5018151;28;20137;-84
2023/10/23 09:26:50;;;;;;;11.45;9.20;;;;;;;;;;5020087;28;20048;-84
2023/10/23 09:29:17;;;;;;;10.45;8.15;;;;;;;;;;5026142;28;20512;-84
2023/10/23 09:31:43;;;;;;;20.23;9.23;;;;;;;;;;5006987;28;20041;-84
2023/10/23 09:34:10;;;;;;;9.45;8.45;;;;;;;;;;5046443;28;20120;-84
2023/10/23 09:36:36;;;;;;;16.58;8.85;;;;;;;;;;5010567;28;20084;-84
2023/10/23 09:39:02;;;;;;;9.10;7.75;;;;;;;;;;5027840;28;20170;-84
2023/10/23 09:41:30;;;;;;;14.65;8.48;;;;;;;;;;5034776;28;20041;-84
2023/10/23 09:44:00;;;;;;;7.75;6.72;;;;;;;;;;5032889;28;20068;-84
2023/10/23 09:46:28;;;;;;;8.85;7.55;;;;;;;;;;5022728;28;20033;-83
2023/10/23 09:48:59;;;;;;;10.18;7.22;;;;;;;;;;5036390;28;20032;-81
2023/10/23 09:51:28;;;;;;;11.77;6.63;;;;;;;;;;5039437;28;20037;-81
2023/10/23 09:53:59;;;;;;;7.90;5.80;;;;;;;;;;5038606;28;20519;-81
2023/10/23 09:56:29;;;;;;;10.07;6.18;;;;;;;;;;5036768;28;20469;-80
2023/10/23 09:58:59;;;;;;;11.00;7.35;;;;;;;;;;5033077;28;20069;-84
2023/10/23 10:01:32;;;;;;;8.63;7.00;;;;;;;;;;5036532;28;20119;-81
2023/10/23 10:04:03;;;;;;;7.82;6.00;;;;;;;;;;5014682;28;20091;-80
2023/10/23 10:06:31;;;;;;;15.20;7.47;;;;;;;;;;5018953;28;20079;-81
2023/10/23 10:08:57;;;;;;;12.18;6.72;;;;;;;;;;5023532;28;20129;-81
2023/10/23 10:11:25;;;;;;;9.32;6.13;;;;;;;;;;5000973;28;20556;-81
2023/10/23 10:13:52;;;;;;;10.98;6.82;;;;;;;;;;5006866;28;20406;-81
2023/10/23 10:16:18;;;;;;;9.88;6.18;;;;;;;;;;5034966;28;20086;-81
2023/10/23 10:18:45;;;;;;;7.82;5.97;;;;;;;;;;5015377;28;20044;-81
2023/10/23 10:21:12;;;;;;;11.75;5.68;;;;;;;;;;5015947;28;20428;-82
2023/10/23 10:23:38;;;;;;;6.40;5.05;;;;;;;;;;5013728;28;20518;-81
2023/10/23 10:26:05;;;;;;;5.55;4.47;;;;;;;;;;5003041;28;20033;-81
2023/10/23 10:28:31;;;;;;;6.50;4.28;;;;;;;;;;5002101;28;20036;-81
2023/10/23 10:30:57;;;;;;;7.32;4.95;;;;;;;;;;5001803;28;20551;-82
2023/10/23 10:33:23;;;;;;;8.43;4.65;;;;;;;;;;5022477;28;20404;-81
2023/10/23 10:35:56;;;;;;;5.80;4.15;;;;;;;;;;5020277;28;20060;-84
2023/10/23 10:38:22;;;;;;;4.30;3.90;;;;;;;;;;5036267;28;20033;-83
2023/10/23 10:41:04;;;;;;;5.80;3.72;;;;;;;;;;5033135;28;20118;-84
2023/10/23 10:43:37;;;;;;;6.25;3.47;;;;;;;;;;5023911;28;20105;-83
2023/10/23 10:46:13;;;;;;;5.38;3.20;;;;;;;;;;5023605;28;20041;-86
2023/10/23 10:48:43;;;;;;;3.58;3.13;;;;;;;;;;5026998;28;20051;-89
2023/10/23 10:51:09;;;;;;;6.63;3.65;;;;;;;;;;5045524;28;20071;-87
2023/10/23 10:53:40;;;;;;;5.35;3.35;;;;;;;;;;5026321;28;20086;-85
2023/10/23 10:56:08;;;;;;;6.88;3.65;;;;;;;;;;5029077;28;20029;-86
2023/10/23 10:58:35;;;;;;;6.85;3.22;;;;;;;;;;5009261;28;20037;-83
2023/10/23 11:01:02;;;;;;;6.60;3.47;;;;;;;;;;5019777;28;20032;-87
2023/10/23 11:03:34;;;;;;;7.13;3.20;;;;;;;;;;5029552;28;20045;-84
2023/10/23 11:06:00;;;;;;;9.05;3.67;;;;;;;;;;5057294;28;20073;-85
2023/10/23 11:08:29;;;;;;;6.57;3.08;;;;;;;;;;5024547;28;20063;-85
2023/10/23 11:11:02;;;;;;;5.05;3.10;;;;;;;;;;5026122;28;20049;-85
2023/10/23 11:13:28;;;;;;;5.40;2.90;;;;;;;;;;5029114;28;20393;-85
2023/10/23 11:15:57;;;;;;;7.78;2.60;;;;;;;;;;5010464;28;20053;-85
2023/10/23 11:18:23;;;;;;;4.47;2.40;;;;;;;;;;5047105;28;20037;-84
2023/10/23 11:20:49;;;;;;;3.58;2.28;;;;;;;;;;5024553;28;20047;-85
2023/10/23 11:23:21;;;;;;;3.70;2.47;;;;;;;;;;5060607;28;20033;-89
2023/10/23 11:25:51;;;;;;;5.05;2.55;;;;;;;;;;5040815;28;20045;-86
2023/10/23 11:28:20;;;;;;;5.72;1.98;;;;;;;;;;5047998;28;20462;-84
2023/10/23 11:30:47;;;;;;;451.80;52.80;;;;;;;;;;5029791;28;20041;-87
2023/10/23 11:33:15;;;;;;;2.47;1.83;;;;;;;;;;5027228;28;20052;-84
2023/10/23 11:35:41;;;;;;;3.58;1.90;;;;;;;;;;5026610;28;20133;-83
2023/10/23 11:38:20;;;;;;;2.28;1.80;;;;;;;;;;5044044;28;20041;-84
2023/10/23 11:40:47;;;;;;;5.63;2.10;;;;;;;;;;5030399;28;20042;-85
2023/10/23 11:43:17;;;;;;;3.65;1.58;;;;;;;;;;5027702;28;20029;-86
2023/10/23 11:45:45;;;;;;;3.22;1.85;;;;;;;;;;5030869;28;20128;-85
2023/10/23 11:48:14;;;;;;;4.57;1.60;;;;;;;;;;5024081;28;20130;-85
2023/10/23 11:50:41;;;;;;;4.63;1.85;;;;;;;;;;5044098;28;20043;-86
2023/10/23 11:53:07;;;;;;;2.78;1.85;;;;;;;;;;5025834;28;20036;-85
2023/10/23 11:55:34;;;;;;;5.45;2.10;;;;;;;;;;5022272;28;20041;-86
2023/10/23 11:58:01;;;;;;;4.47;2.28;;;;;;;;;;5030333;28;20037;-86
2023/10/23 12:00:28;;;;;;;5.38;2.20;;;;;;;;;;5026394;28;20123;-85
2023/10/23 12:02:54;;;;;;;5.80;1.75;;;;;;;;;;5041780;28;20064;-86
2023/10/23 12:05:21;;;;;;;4.13;1.90;;;;;;;;;;5009053;28;20041;-88
2023/10/23 12:07:52;;;;;;;4.65;2.00;;;;;;;;;;5031895;28;20040;-89
2023/10/23 12:10:19;;;;;;;3.70;1.73;;;;;;;;;;5033298;28;20071;-89
2023/10/23 12:12:46;;;;;;;4.93;2.20;;;;;;;;;;5028548;28;20042;-88
2023/10/23 12:15:13;;;;;;;4.10;2.22;;;;;;;;;;5039550;28;20042;-88
2023/10/23 12:17:39;;;;;;;3.50;2.00;;;;;;;;;;5012478;28;20053;-88
2023/10/23 12:20:09;;;;;;;4.35;2.35;;;;;;;;;;5032065;28;20033;-89
2023/10/23 12:22:43;;;;;;;2.88;1.90;;;;;;;;;;5033326;28;20037;-88
2023/10/23 12:25:10;;;;;;;3.88;1.70;;;;;;;;;;5031650;28;20047;-88
2023/10/23 12:27:36;;;;;;;3.08;1.70;;;;;;;;;;5038990;28;20040;-88
2023/10/23 12:30:04;;;;;;;4.45;1.60;;;;;;;;;;5031333;28;20048;-89
2023/10/23 12:32:31;;;;;;;2.47;1.33;;;;;;;;;;5027862;28;20045;-89
2023/10/23 12:35:03;;;;;;;3.03;1.35;;;;;;;;;;5027973;28;20103;-89
2023/10/23 12:37:29;;;;;;;3.75;1.70;;;;;;;;;;5029376;28;20056;-89
2023/10/23 12:39:56;;;;;;;4.60;1.58;;;;;;;;;;5039398;28;20097;-89
2023/10/23 12:42:22;;;;;;;5.15;1.80;;;;;;;;;;5033222;28;20051;-89
2023/10/23 12:44:49;;;;;;;3.70;1.83;;;;;;;;;;5044173;28;20049;-89
2023/10/23 12:47:15;;;;;;;2.00;1.80;;;;;;;;;;5044942;28;20060;-89
2023/10/23 12:49:42;;;;;;;4.07;2.55;;;;;;;;;;5033789;28;20045;-89
2023/10/23 12:52:09;;;;;;;5.72;2.42;;;;;;;;;;5031522;28;20045;-89
2023/10/23 12:54:35;;;;;;;8.25;3.13;;;;;;;;;;5027666;28;20071;-89
2023/10/23 12:57:03;;;;;;;3.53;3.00;;;;;;;;;;5025370;28;20041;-84
2023/10/23 12:59:29;;;;;;;5.75;3.92;;;;;;;;;;5023902;28;20048;-84
2023/10/23 13:01:55;;;;;;;7.65;4.63;;;;;;;;;;5037702;28;20125;-85
2023/10/23 13:04:22;;;;;;;6.35;4.97;;;;;;;;;;5007685;28;20037;-86
2023/10/23 13:06:48;;;;;;;7.90;5.13;;;;;;;;;;5026552;28;20045;-85
2023/10/23 13:09:18;;;;;;;8.02;5.47;;;;;;;;;;5024678;28;20048;-84
2023/10/23 13:11:47;;;;;;;15.07;5.78;;;;;;;;;;5027810;28;20063;-84
2023/10/23 13:14:14;;;;;;;7.20;5.50;;;;;;;;;;5012891;28;20040;-86
2023/10/23 13:16:40;;;;;;;6.88;4.72;;;;;;;;;;5028015;28;20044;-88
2023/10/23 13:19:06;;;;;;;4.35;3.72;;;;;;;;;;5028184;28;20033;-87
2023/10/23 13:21:33;;;;;;;6.07;4.15;;;;;;;;;;5027800;28;20037;-87
2023/10/23 13:23:59;;;;;;;4.57;3.78;;;;;;;;;;5015610;28;20068;-87
2023/10/23 13:26:25;;;;;;;9.07;4.22;;;;;;;;;;5036496;28;20044;-87
2023/10/23 13:28:51;;;;;;;6.65;4.45;;;;;;;;;;5035023;28;20044;-88
2023/10/23 13:31:17;;;;;;;6.15;5.30;;;;;;;;;;5030135;28;20047;-87
2023/10/23 13:33:44;;;;;;;7.97;6.07;;;;;;;;;;5020321;28;20073;-88
2023/10/23 13:36:10;;;;;;;7.28;5.80;;;;;;;;;;5042396;28;20056;-87
2023/10/23 13:38:37;;;;;;;7.00;5.45;;;;;;;;;;5046182;28;20543;-88
2023/10/23 13:41:05;;;;;;;10.00;5.30;;;;;;;;;;5030032;28;20037;-87
2023/10/23 13:43:31;;;;;;;7.57;5.43;;;;;;;;;;5029173;28;20044;-87
2023/10/23 13:45:57;;;;;;;8.20;5.63;;;;;;;;;;5040861;28;20051;-88
2023/10/23 13:48:23;;;;;;;6.25;5.40;;;;;;;;;;5027585;28;20041;-88
2023/10/23 13:50:50;;;;;;;8.40;5.93;;;;;;;;;;5029712;28;20103;-87
2023/10/23 13:53:19;;;;;;;12.80;6.53;;;;;;;;;;5027871;28;20044;-87
2023/10/23 13:55:45;;;;;;;10.45;5.93;;;;;;;;;;5050269;28;20044;-87
2023/10/23 13:58:12;;;;;;;10.93;6.65;;;;;;;;;;5029710;28;20076;-88
2023/10/23 14:00:38;;;;;;;30.77;8.40;;;;;;;;;;5029453;28;20554;-88
2023/10/23 14:03:05;;;;;;;13.43;7.47;;;;;;;;;;5030121;28;20037;-88
2023/10/23 14:05:31;;;;;;;12.02;6.60;;;;;;;;;;5027757;28;20037;-85
2023/10/23 14:07:58;;;;;;;15.07;6.88;;;;;;;;;;5019503;28;20033;-84
2023/10/23 14:10:24;;;;;;;13.98;7.15;;;;;;;;;;5022850;28;20052;-85
2023/10/23 14:12:53;;;;;;;16.67;7.60;;;;;;;;;;5026644;28;20037;-85
2023/10/23 14:15:20;;;;;;;11.60;7.78;;;;;;;;;;5041421;28;20805;-84
2023/10/23 14:17:46;;;;;;;14.98;7.78;;;;;;;;;;5024434;28;20056;-84
2023/10/23 14:20:12;;;;;;;10.23;7.88;;;;;;;;;;5025602;28;20033;-84
2023/10/23 14:22:40;;;;;;;13.75;8.95;;;;;;;;;;5020019;28;20037;-85
2023/10/23 14:25:09;;;;;;;9.85;7.95;;;;;;;;;;5019112;28;20047;-85
2023/10/23 14:27:38;;;;;;;9.65;8.25;;;;;;;;;;5025699;28;20451;-88